Time;durP1;ratioP1;P1;durP2;ratioP2;P2;SDS_P1;SDS_P2;PMS_P1;PMS_P2;Temp;Humidity;BMP_temperature;BMP_pressure;BME280_temperature;BME280_humidity;BME280_pressure;Samples;Min_cycle;Max_cycle;Signal;HPM_P1;HPM_P2
2022/09/10 00:02:10;;;;;;;7.80;5.23;;;16.40;99.90;;;;;;5068711;28;20895;-74
2022/09/10 00:04:37;;;;;;;9.43;5.57;;;16.40;99.90;;;;;;5075053;28;20472;-74
2022/09/10 00:07:04;;;;;;;8.80;5.67;;;16.50;99.90;;;;;;5071161;28;20248;-75
2022/09/10 00:09:31;;;;;;;6.65;5.60;;;16.30;99.90;;;;;;5072417;28;20463;-75
2022/09/10 00:11:58;;;;;;;8.90;6.03;;;16.30;99.90;;;;;;5073354;28;20311;-71
2022/09/10 00:14:25;;;;;;;7.65;6.53;;;16.10;99.90;;;;;;5070694;28;20721;-74
2022/09/10 00:16:54;;;;;;;5.78;5.25;;;16.20;99.90;;;;;;5072979;28;20309;-73
2022/09/10 00:19:21;;;;;;;9.57;5.72;;;16.20;99.90;;;;;;5072616;28;20212;-75
2022/09/10 00:21:50;;;;;;;5.93;5.25;;;16.20;99.90;;;;;;5066279;28;20236;-74
2022/09/10 00:24:16;;;;;;;8.90;5.20;;;16.20;99.90;;;;;;5070943;28;20563;-74
2022/09/10 00:26:44;;;;;;;5.32;4.82;;;16.30;99.90;;;;;;5071247;28;20729;-75
2022/09/10 00:29:17;;;;;;;8.10;5.57;;;16.30;99.90;;;;;;5066206;28;20202;-75
2022/09/10 00:31:44;;;;;;;7.03;5.95;;;16.30;99.90;;;;;;5065000;28;20194;-74
2022/09/10 00:34:13;;;;;;;8.65;7.03;;;16.30;99.90;;;;;;5068971;28;20209;-74
2022/09/10 00:36:43;;;;;;;8.60;6.47;;;16.30;99.90;;;;;;5072431;28;20228;-75
2022/09/10 00:39:12;;;;;;;8.95;6.15;;;16.10;99.90;;;;;;5071889;28;20213;-75
2022/09/10 00:41:41;;;;;;;11.15;8.45;;;16.10;99.90;;;;;;5071769;28;20709;-75
2022/09/10 00:44:47;;;;;;;6.75;5.80;;;16.20;99.90;;;;;;5072075;28;20202;-75
2022/09/10 00:47:19;;;;;;;7.45;6.63;;;16.20;99.90;;;;;;5070855;28;20224;-73
2022/09/10 00:49:52;;;;;;;6.68;6.07;;;16.10;99.90;;;;;;5068470;28;20204;-74
2022/09/10 00:52:20;;;;;;;6.10;5.50;;;16.10;99.90;;;;;;5075788;28;20204;-73
2022/09/10 00:54:48;;;;;;;9.90;6.43;;;16.10;99.90;;;;;;5073551;28;20239;-73
2022/09/10 00:57:18;;;;;;;8.70;5.50;;;16.10;99.90;;;;;;5081239;28;20514;-74
2022/09/10 00:59:48;;;;;;;7.83;5.80;;;16.20;99.90;;;;;;5078238;28;20229;-75
2022/09/10 01:02:16;;;;;;;8.40;5.67;;;16.20;99.90;;;;;;5070356;28;20890;-73
2022/09/10 01:04:43;;;;;;;9.38;7.85;;;16.20;99.90;;;;;;5079294;28;20512;-75
2022/09/10 01:07:14;;;;;;;7.15;6.45;;;16.20;99.90;;;;;;5077585;28;20694;-75
2022/09/10 01:09:42;;;;;;;7.57;6.85;;;16.10;99.90;;;;;;5074489;28;20558;-75
2022/09/10 01:12:21;;;;;;;17.15;8.07;;;16.10;99.90;;;;;;5076432;28;20658;-76
2022/09/10 01:15:05;;;;;;;9.52;7.28;;;16.10;99.90;;;;;;5071222;28;20217;-74
2022/09/10 01:17:43;;;;;;;9.82;7.93;;;16.10;99.90;;;;;;5083443;28;20724;-75
2022/09/10 01:20:37;;;;;;;9.63;6.75;;;16.00;99.90;;;;;;5066749;28;20529;-73
2022/09/10 01:23:30;;;;;;;14.30;7.60;;;16.00;99.90;;;;;;5061366;28;20638;-73
2022/09/10 01:26:08;;;;;;;10.63;8.02;;;15.90;99.90;;;;;;5071433;28;20198;-75
2022/09/10 01:28:44;;;;;;;10.27;6.20;;;15.90;99.90;;;;;;5067580;28;20263;-74
2022/09/10 01:31:20;;;;;;;8.30;6.93;;;16.00;99.90;;;;;;5068204;28;20286;-74
2022/09/10 01:33:51;;;;;;;7.60;6.90;;;16.00;99.90;;;;;;5075839;28;20265;-74
2022/09/10 01:36:22;;;;;;;11.50;6.57;;;16.00;99.90;;;;;;5070548;28;20303;-74
2022/09/10 01:38:50;;;;;;;7.97;7.25;;;16.10;99.90;;;;;;5070126;28;20274;-73
2022/09/10 01:41:21;;;;;;;11.52;6.85;;;16.10;99.90;;;;;;5064340;28;20212;-74
2022/09/10 01:43:49;;;;;;;10.32;7.90;;;16.00;99.90;;;;;;5074014;28;20227;-74
2022/09/10 01:46:27;;;;;;;7.20;6.50;;;16.10;99.90;;;;;;5069041;28;20208;-75
2022/09/10 01:49:12;;;;;;;8.00;6.45;;;16.10;99.90;;;;;;5072696;28;20197;-74
2022/09/10 01:51:57;;;;;;;8.68;7.53;;;16.10;99.90;;;;;;5074608;28;20205;-74
2022/09/10 01:54:39;;;;;;;7.43;5.97;;;16.10;99.90;;;;;;5066592;28;20638;-74
2022/09/10 01:57:13;;;;;;;15.45;6.03;;;16.10;99.90;;;;;;5074591;28;20220;-74
2022/09/10 01:59:49;;;;;;;9.10;6.65;;;16.20;99.90;;;;;;5075097;28;20225;-74
2022/09/10 02:02:21;;;;;;;9.23;7.70;;;16.20;99.90;;;;;;5087498;28;20212;-74
2022/09/10 02:04:50;;;;;;;6.85;6.00;;;16.20;99.90;;;;;;5089054;28;20230;-76
2022/09/10 02:07:33;;;;;;;9.75;7.22;;;16.20;99.90;;;;;;5067466;28;20222;-75
2022/09/10 02:10:03;;;;;;;6.93;6.28;;;16.20;99.90;;;;;;5075336;28;20724;-74
2022/09/10 02:12:32;;;;;;;9.43;7.80;;;16.20;99.90;;;;;;5075844;28;20278;-73
2022/09/10 02:15:00;;;;;;;8.15;5.85;;;16.20;99.90;;;;;;5079496;28;20203;-74
2022/09/10 02:17:32;;;;;;;7.72;6.82;;;16.20;99.90;;;;;;5071667;28;20634;-74
2022/09/10 02:20:00;;;;;;;7.88;6.68;;;16.20;99.90;;;;;;5073546;28;20207;-74
2022/09/10 02:22:30;;;;;;;9.88;6.68;;;16.20;99.90;;;;;;5072320;28;20221;-74
2022/09/10 02:24:57;;;;;;;6.80;6.10;;;16.20;99.90;;;;;;5071250;28;20560;-74
2022/09/10 02:27:24;;;;;;;8.52;7.63;;;16.20;99.90;;;;;;5061825;28;20266;-74
2022/09/10 02:29:51;;;;;;;8.23;7.43;;;16.10;99.90;;;;;;5076926;28;20285;-72
2022/09/10 02:32:20;;;;;;;9.85;6.50;;;16.20;99.90;;;;;;5072761;28;20221;-75
2022/09/10 02:34:47;;;;;;;9.95;7.05;;;16.20;99.90;;;;;;5074190;28;20291;-74
2022/09/10 02:37:15;;;;;;;8.68;5.20;;;16.20;99.90;;;;;;5070344;28;20657;-74
2022/09/10 02:39:43;;;;;;;9.43;7.03;;;16.30;99.90;;;;;;5065657;28;20199;-74
2022/09/10 02:42:11;;;;;;;9.60;8.32;;;16.30;99.90;;;;;;5074931;28;20210;-73
2022/09/10 02:44:38;;;;;;;9.30;7.53;;;16.30;99.90;;;;;;5074697;28;20210;-74
2022/09/10 02:47:05;;;;;;;10.25;7.00;;;16.30;99.90;;;;;;5079907;28;20308;-74
2022/09/10 02:49:35;;;;;;;8.07;7.30;;;16.30;99.90;;;;;;5072523;28;20197;-73
2022/09/10 02:52:02;;;;;;;8.70;6.47;;;16.30;99.90;;;;;;5089669;28;20227;-73
2022/09/10 02:54:31;;;;;;;8.10;7.25;;;16.30;99.90;;;;;;5091536;28;20218;-73
2022/09/10 02:56:59;;;;;;;8.65;7.22;;;16.30;99.90;;;;;;5076398;28;20230;-74
2022/09/10 02:59:25;;;;;;;9.80;8.10;;;16.40;99.90;;;;;;5073740;28;20236;-75
2022/09/10 03:01:52;;;;;;;11.40;8.47;;;16.30;99.90;;;;;;5074225;28;20224;-74
2022/09/10 03:04:20;;;;;;;15.30;8.57;;;16.30;99.90;;;;;;5074112;28;20459;-74
2022/09/10 03:06:50;;;;;;;8.00;7.20;;;16.30;99.90;;;;;;5074469;28;20853;-74
2022/09/10 03:09:18;;;;;;;9.50;8.60;;;16.30;99.90;;;;;;5065257;28;20456;-73
2022/09/10 03:11:45;;;;;;;11.65;8.70;;;16.30;99.90;;;;;;5070317;28;20217;-73
2022/09/10 03:14:18;;;;;;;11.68;8.85;;;16.20;99.90;;;;;;5074283;28;20220;-73
2022/09/10 03:16:46;;;;;;;13.77;9.88;;;16.20;99.90;;;;;;5063621;28;20273;-73
2022/09/10 03:19:13;;;;;;;11.43;8.70;;;16.10;99.90;;;;;;5073849;28;20205;-73
2022/09/10 03:21:41;;;;;;;10.20;9.13;;;16.10;99.90;;;;;;5072975;28;20208;-72
2022/09/10 03:24:10;;;;;;;11.77;8.43;;;16.10;99.90;;;;;;5073035;28;20205;-75
2022/09/10 03:26:37;;;;;;;12.40;10.38;;;16.10;99.90;;;;;;5060615;28;20271;-74
2022/09/10 03:29:04;;;;;;;10.32;8.90;;;16.10;99.90;;;;;;5075280;28;20252;-73
2022/09/10 03:31:32;;;;;;;9.83;8.80;;;16.10;99.90;;;;;;5059973;28;20636;-71
2022/09/10 03:34:00;;;;;;;12.35;10.70;;;16.10;99.90;;;;;;5071763;28;20789;-74
2022/09/10 03:36:30;;;;;;;16.48;10.20;;;16.20;99.90;;;;;;5068034;28;20241;-72
2022/09/10 03:38:57;;;;;;;16.05;11.00;;;16.10;99.90;;;;;;5073675;28;20196;-74
2022/09/10 03:41:28;;;;;;;14.60;10.88;;;16.10;99.90;;;;;;5071799;28;20206;-73
2022/09/10 03:43:56;;;;;;;11.10;8.93;;;16.20;99.90;;;;;;5062146;28;20313;-75
2022/09/10 03:46:23;;;;;;;12.40;9.00;;;16.20;99.90;;;;;;5070440;28;20200;-73
2022/09/10 03:48:50;;;;;;;11.90;9.20;;;16.20;99.90;;;;;;5068185;28;20292;-73
2022/09/10 03:51:18;;;;;;;11.15;10.02;;;16.30;99.90;;;;;;5063117;28;20222;-73
2022/09/10 03:53:44;;;;;;;12.70;11.05;;;16.30;99.90;;;;;;5073176;28;20282;-73
2022/09/10 03:56:12;;;;;;;13.88;9.60;;;16.30;99.90;;;;;;5071135;28;20201;-73
2022/09/10 03:58:40;;;;;;;12.10;10.82;;;16.30;99.90;;;;;;5072635;28;20193;-73
2022/09/10 04:01:07;;;;;;;13.07;10.85;;;16.30;99.90;;;;;;5072606;28;20201;-73
2022/09/10 04:03:34;;;;;;;13.85;11.88;;;16.30;99.90;;;;;;5072617;28;20220;-74
2022/09/10 04:06:01;;;;;;;11.60;9.38;;;16.30;99.90;;;;;;5072326;28;20207;-75
2022/09/10 04:08:28;;;;;;;16.77;12.20;;;16.20;99.90;;;;;;5072094;28;20582;-74
2022/09/10 04:11:00;;;;;;;15.83;12.07;;;16.20;99.90;;;;;;5057387;28;20295;-74
2022/09/10 04:13:27;;;;;;;18.55;13.05;;;16.10;99.90;;;;;;5071139;28;20451;-74
2022/09/10 04:15:55;;;;;;;12.85;10.95;;;16.10;99.90;;;;;;5071166;28;20288;-75
2022/09/10 04:18:25;;;;;;;14.85;11.27;;;16.10;99.90;;;;;;5064828;28;20274;-73
2022/09/10 04:20:52;;;;;;;17.20;12.00;;;16.10;99.90;;;;;;5073519;28;20197;-74
2022/09/10 04:23:19;;;;;;;20.10;13.40;;;16.10;99.90;;;;;;5075819;28;20496;-75
2022/09/10 04:25:48;;;;;;;16.58;14.45;;;16.10;99.90;;;;;;5089206;28;20315;-74
2022/09/10 04:28:15;;;;;;;12.25;10.95;;;16.20;99.90;;;;;;5071720;28;20629;-74
2022/09/10 04:30:44;;;;;;;18.85;14.00;;;16.20;99.90;;;;;;5064036;28;20204;-74
2022/09/10 04:33:12;;;;;;;19.88;13.48;;;16.20;99.90;;;;;;5063202;28;20192;-74
2022/09/10 04:35:39;;;;;;;19.05;12.63;;;16.30;99.90;;;;;;5072401;28;20251;-73
2022/09/10 04:38:06;;;;;;;19.92;14.40;;;16.30;99.90;;;;;;5062641;28;20310;-74
2022/09/10 04:40:34;;;;;;;18.27;15.13;;;16.20;99.90;;;;;;5063786;28;20301;-74
2022/09/10 04:43:01;;;;;;;19.13;13.43;;;16.20;99.90;;;;;;5072870;28;20483;-74
2022/09/10 04:45:28;;;;;;;13.02;11.73;;;16.10;99.90;;;;;;5075368;28;20658;-73
2022/09/10 04:47:55;;;;;;;13.32;11.27;;;16.20;99.90;;;;;;5088584;28;20309;-74
2022/09/10 04:50:25;;;;;;;14.65;12.20;;;16.20;99.90;;;;;;5077004;28;20604;-74
2022/09/10 04:52:51;;;;;;;12.95;10.82;;;16.20;99.90;;;;;;5078397;28;20193;-73
2022/09/10 04:55:19;;;;;;;16.95;13.05;;;16.20;99.90;;;;;;5078268;28;20288;-73
2022/09/10 04:57:45;;;;;;;20.13;15.15;;;16.30;99.90;;;;;;5072495;28;20257;-73
2022/09/10 05:00:13;;;;;;;24.70;15.85;;;16.20;99.90;;;;;;5079022;28;20209;-74
2022/09/10 05:02:40;;;;;;;27.40;15.15;;;16.20;99.90;;;;;;5072530;28;20256;-73
2022/09/10 05:05:08;;;;;;;24.60;17.77;;;16.10;99.90;;;;;;5072529;28;20239;-74
2022/09/10 05:07:36;;;;;;;24.92;17.38;;;16.10;99.90;;;;;;5066386;28;20303;-74
2022/09/10 05:10:03;;;;;;;21.40;15.75;;;16.10;99.90;;;;;;5072289;28;20601;-74
2022/09/10 05:12:30;;;;;;;18.00;14.03;;;16.10;99.90;;;;;;5073955;28;20210;-74
2022/09/10 05:14:57;;;;;;;21.77;16.53;;;16.10;99.90;;;;;;5066414;28;20475;-74
2022/09/10 05:17:27;;;;;;;21.42;16.75;;;16.10;99.90;;;;;;5063984;28;20493;-74
2022/09/10 05:19:53;;;;;;;24.55;17.17;;;16.20;99.90;;;;;;5059810;28;20198;-74
2022/09/10 05:22:20;;;;;;;19.90;15.70;;;16.20;99.90;;;;;;5064956;28;20213;-74
2022/09/10 05:24:49;;;;;;;23.98;16.88;;;16.20;99.90;;;;;;5080925;28;20451;-74
2022/09/10 05:27:16;;;;;;;19.45;14.98;;;16.20;99.90;;;;;;5083747;28;20291;-74
2022/09/10 05:29:43;;;;;;;18.77;15.65;;;16.30;99.90;;;;;;5084190;28;20202;-74
2022/09/10 05:32:10;;;;;;;19.35;14.63;;;16.40;99.90;;;;;;5078689;28;20214;-72
2022/09/10 05:34:38;;;;;;;20.73;13.48;;;16.30;99.90;;;;;;5087112;28;20198;-75
2022/09/10 05:37:07;;;;;;;22.13;14.40;;;16.40;99.90;;;;;;5073727;28;20239;-74
2022/09/10 05:39:36;;;;;;;20.50;15.00;;;16.40;99.90;;;;;;5081914;28;20295;-73
2022/09/10 05:42:06;;;;;;;18.42;15.40;;;16.40;99.90;;;;;;5083108;28;20229;-73
2022/09/10 05:44:33;;;;;;;22.25;16.45;;;16.40;99.90;;;;;;5062949;28;20611;-74
2022/09/10 05:47:00;;;;;;;22.33;15.20;;;16.40;99.90;;;;;;5076743;28;20543;-74
2022/09/10 05:49:29;;;;;;;16.10;14.40;;;16.60;99.90;;;;;;5078869;28;20228;-74
2022/09/10 05:51:56;;;;;;;20.83;14.20;;;16.60;99.90;;;;;;5074272;28;20273;-73
2022/09/10 05:54:23;;;;;;;26.63;18.20;;;16.60;99.90;;;;;;5076324;28;20255;-73
2022/09/10 05:56:51;;;;;;;18.43;15.43;;;16.60;99.90;;;;;;5078867;28;20308;-74
2022/09/10 05:59:19;;;;;;;20.27;14.90;;;16.60;99.90;;;;;;5078496;28;20539;-73
2022/09/10 06:01:50;;;;;;;22.27;13.60;;;16.60;99.90;;;;;;5084090;28;20226;-75
2022/09/10 06:04:17;;;;;;;21.57;15.20;;;16.70;99.90;;;;;;5073700;28;20494;-74
2022/09/10 06:06:46;;;;;;;24.10;16.20;;;16.70;99.90;;;;;;5072888;28;20549;-74
2022/09/10 06:09:13;;;;;;;17.77;14.30;;;16.70;99.90;;;;;;5066050;28;20194;-75
2022/09/10 06:11:40;;;;;;;16.50;13.90;;;16.80;99.90;;;;;;5092675;28;20530;-74
2022/09/10 06:14:07;;;;;;;19.13;14.90;;;16.80;99.90;;;;;;5089790;28;20451;-72
2022/09/10 06:16:38;;;;;;;15.20;11.77;;;16.80;99.90;;;;;;5079384;28;20518;-74
2022/09/10 06:19:04;;;;;;;13.88;12.38;;;16.80;99.90;;;;;;5082601;28;20938;-74
2022/09/10 06:21:31;;;;;;;19.03;15.37;;;16.90;99.90;;;;;;5085667;28;20192;-74
2022/09/10 06:23:58;;;;;;;15.68;12.02;;;16.90;99.90;;;;;;5082632;28;20578;-75
2022/09/10 06:26:26;;;;;;;16.48;11.85;;;17.00;99.90;;;;;;5077457;28;20206;-73
2022/09/10 06:28:55;;;;;;;14.57;12.90;;;17.10;99.90;;;;;;5072445;28;20234;-75
2022/09/10 06:31:22;;;;;;;18.20;12.73;;;17.10;99.90;;;;;;5081747;28;20533;-74
2022/09/10 06:33:50;;;;;;;16.27;13.43;;;17.20;99.90;;;;;;5087532;28;20450;-73
2022/09/10 06:36:17;;;;;;;18.48;14.98;;;17.30;99.90;;;;;;5085515;28;20962;-75
2022/09/10 06:38:44;;;;;;;16.70;14.70;;;17.30;99.90;;;;;;5082847;28;20289;-75
2022/09/10 06:41:14;;;;;;;13.67;12.27;;;17.50;99.90;;;;;;5094248;28;20430;-73
2022/09/10 06:43:41;;;;;;;19.53;12.90;;;17.50;99.90;;;;;;5105051;28;20529;-74
2022/09/10 06:46:13;;;;;;;18.90;13.93;;;17.50;99.90;;;;;;5064420;28;20448;-75
2022/09/10 06:48:40;;;;;;;20.13;14.33;;;17.50;99.90;;;;;;5068622;28;20442;-73
2022/09/10 06:51:11;;;;;;;24.50;14.90;;;17.40;99.90;;;;;;5074315;28;20442;-74
2022/09/10 06:53:38;;;;;;;16.90;13.77;;;17.50;99.90;;;;;;5081598;28;20536;-73
2022/09/10 06:56:08;;;;;;;14.40;12.90;;;17.50;99.90;;;;;;5075811;28;20450;-74
2022/09/10 06:58:36;;;;;;;16.57;14.53;;;17.60;99.90;;;;;;5072578;28;20452;-73
2022/09/10 07:01:07;;;;;;;19.23;14.73;;;17.60;99.90;;;;;;5078449;28;20453;-72
2022/09/10 07:03:35;;;;;;;23.07;14.70;;;17.70;99.90;;;;;;5066053;28;20470;-73
2022/09/10 07:06:06;;;;;;;15.10;11.87;;;17.70;99.90;;;;;;5069156;28;20448;-74
2022/09/10 07:08:35;;;;;;;17.67;12.83;;;17.70;99.90;;;;;;5065150;28;20453;-74
2022/09/10 07:11:06;;;;;;;16.70;12.63;;;17.80;99.90;;;;;;5070486;28;20456;-74
2022/09/10 07:13:34;;;;;;;17.53;12.73;;;17.90;99.90;;;;;;5067395;28;20457;-72
2022/09/10 07:16:02;;;;;;;16.47;11.63;;;18.00;99.90;;;;;;5065898;28;20811;-73
2022/09/10 07:18:29;;;;;;;17.17;12.33;;;18.10;99.90;;;;;;5067606;28;20470;-72
2022/09/10 07:21:06;;;;;;;14.20;12.33;;;18.30;99.90;;;;;;5061361;28;20553;-73
2022/09/10 07:23:37;;;;;;;14.53;11.63;;;18.30;99.90;;;;;;5072585;28;20932;-76
2022/09/10 07:26:08;;;;;;;19.63;13.47;;;18.40;99.90;;;;;;5079684;28;20518;-76
2022/09/10 07:28:36;;;;;;;16.17;14.43;;;18.30;99.90;;;;;;5071493;28;20452;-73
2022/09/10 07:31:32;;;;;;;20.57;13.30;;;18.30;99.90;;;;;;5067390;28;20438;-76
2022/09/10 07:34:11;;;;;;;16.70;13.80;;;18.30;99.90;;;;;;5073675;28;20850;-76
2022/09/10 07:36:39;;;;;;;18.93;14.00;;;18.30;99.90;;;;;;5078639;28;20486;-72
2022/09/10 07:39:07;;;;;;;19.37;16.13;;;18.30;99.90;;;;;;5079201;28;20929;-74
2022/09/10 07:41:34;;;;;;;16.10;12.90;;;18.30;99.90;;;;;;5066011;28;20458;-73
2022/09/10 07:44:02;;;;;;;19.57;14.53;;;18.30;99.90;;;;;;5071180;28;20560;-75
2022/09/10 07:46:29;;;;;;;16.77;13.53;;;18.30;99.90;;;;;;5076333;28;20473;-75
2022/09/10 07:48:57;;;;;;;16.53;14.90;;;18.40;99.90;;;;;;5074724;28;20524;-75
2022/09/10 07:51:26;;;;;;;16.37;14.33;;;18.50;99.90;;;;;;5072897;28;20943;-76
2022/09/10 07:53:54;;;;;;;19.10;15.57;;;18.40;99.90;;;;;;5072151;28;20447;-76
2022/09/10 07:56:23;;;;;;;20.37;14.10;;;18.50;99.90;;;;;;5076303;28;20445;-74
2022/09/10 07:58:50;;;;;;;15.90;14.03;;;18.60;99.90;;;;;;5071541;28;20528;-75
2022/09/10 08:01:19;;;;;;;18.50;14.67;;;18.70;99.90;;;;;;5071985;28;20532;-74
2022/09/10 08:03:46;;;;;;;16.70;15.00;;;18.80;99.90;;;;;;5067606;28;20480;-73
2022/09/10 08:06:13;;;;;;;23.03;16.67;;;18.90;99.90;;;;;;5065480;28;20517;-74
2022/09/10 08:08:41;;;;;;;18.07;14.60;;;19.00;99.90;;;;;;5073597;28;20834;-75
2022/09/10 08:11:10;;;;;;;15.70;14.00;;;19.00;99.90;;;;;;5067674;28;20543;-75
2022/09/10 08:13:40;;;;;;;19.00;15.60;;;19.10;99.90;;;;;;5066079;28;20540;-74
2022/09/10 08:16:10;;;;;;;23.53;16.63;;;19.20;99.90;;;;;;5068868;28;20487;-76
2022/09/10 08:18:38;;;;;;;16.90;13.77;;;19.30;99.90;;;;;;5065272;28;20445;-76
2022/09/10 08:21:06;;;;;;;17.10;14.47;;;19.30;99.90;;;;;;5067143;28;20463;-74
2022/09/10 08:23:33;;;;;;;17.13;15.33;;;19.30;99.90;;;;;;5065097;28;20472;-74
2022/09/10 08:26:03;;;;;;;16.80;14.57;;;19.30;99.90;;;;;;5071815;28;21764;-74
2022/09/10 08:28:30;;;;;;;21.73;16.80;;;19.20;99.90;;;;;;5075522;28;20460;-73
2022/09/10 08:31:02;;;;;;;22.10;15.33;;;19.20;99.90;;;;;;5069893;28;20441;-75
2022/09/10 08:33:30;;;;;;;26.93;17.80;;;19.10;99.90;;;;;;5066151;28;20486;-74
2022/09/10 08:35:59;;;;;;;20.00;17.90;;;19.10;99.90;;;;;;5075359;28;20449;-73
2022/09/10 08:38:31;;;;;;;19.57;16.27;;;19.00;99.90;;;;;;5083044;28;20492;-75
2022/09/10 08:40:59;;;;;;;25.07;18.03;;;19.10;99.90;;;;;;5062950;28;20442;-75
2022/09/10 08:43:33;;;;;;;22.70;15.80;;;19.20;99.90;;;;;;5063621;28;20441;-76
2022/09/10 08:46:10;;;;;;;22.87;15.80;;;19.30;99.90;;;;;;5072771;28;20440;-77
2022/09/10 08:48:39;;;;;;;19.73;16.70;;;19.40;99.90;;;;;;5072534;28;20536;-76
2022/09/10 08:51:13;;;;;;;18.27;16.00;;;19.60;99.90;;;;;;5077203;28;20453;-76
2022/09/10 08:53:46;;;;;;;18.27;13.97;;;19.90;99.90;;;;;;5073141;28;20455;-76
2022/09/10 08:56:16;;;;;;;16.10;14.40;;;20.20;99.90;;;;;;5071158;28;20463;-77
2022/09/10 08:58:47;;;;;;;18.43;15.67;;;20.60;99.90;;;;;;5068144;28;20439;-77
2022/09/10 09:01:27;;;;;;;18.87;15.97;;;20.80;99.90;;;;;;5062028;28;20512;-78
2022/09/10 09:03:56;;;;;;;23.23;17.87;;;21.00;99.90;;;;;;5071670;28;20483;-77
2022/09/10 09:06:30;;;;;;;19.53;16.23;;;21.20;99.90;;;;;;5067143;28;20453;-78
2022/09/10 09:09:00;;;;;;;17.87;16.03;;;21.00;99.90;;;;;;5072754;28;20448;-78
2022/09/10 09:11:39;;;;;;;17.13;15.50;;;21.30;99.90;;;;;;5065913;28;20452;-78
2022/09/10 09:14:21;;;;;;;19.97;16.10;;;21.50;99.90;;;;;;5076251;28;20457;-77
2022/09/10 09:17:08;;;;;;;21.57;16.53;;;21.50;99.90;;;;;;5067801;28;20464;-76
2022/09/10 09:19:44;;;;;;;17.80;15.90;;;21.60;99.90;;;;;;5075824;28;20532;-76
2022/09/10 09:22:17;;;;;;;18.60;14.73;;;21.80;99.90;;;;;;5074674;28;20445;-77
2022/09/10 09:24:53;;;;;;;21.20;15.60;;;21.90;99.90;;;;;;5077645;28;20480;-77
2022/09/10 09:27:21;;;;;;;18.83;17.03;;;21.70;99.90;;;;;;5079653;28;20567;-76
2022/09/10 09:29:54;;;;;;;21.53;16.20;;;21.50;99.90;;;;;;5070704;28;20468;-76
2022/09/10 09:32:23;;;;;;;17.40;15.47;;;21.40;99.90;;;;;;5081432;28;20463;-76
2022/09/10 09:34:54;;;;;;;18.20;16.33;;;21.10;99.90;;;;;;5070912;28;20805;-77
2022/09/10 09:37:24;;;;;;;19.73;16.20;;;20.90;99.90;;;;;;5065374;28;20483;-76
2022/09/10 09:40:03;;;;;;;18.57;16.57;;;20.70;99.90;;;;;;5069640;28;20474;-76
2022/09/10 09:42:39;;;;;;;16.33;14.63;;;20.60;99.90;;;;;;5072803;28;20447;-76
2022/09/10 09:45:16;;;;;;;16.77;15.07;;;20.60;99.90;;;;;;5064398;28;20483;-76
2022/09/10 09:47:46;;;;;;;18.33;15.77;;;20.50;99.90;;;;;;5075554;28;20465;-77
2022/09/10 09:50:13;;;;;;;18.27;16.37;;;20.50;99.90;;;;;;5064320;28;20434;-76
2022/09/10 09:52:43;;;;;;;20.63;18.40;;;20.40;99.90;;;;;;5072825;28;20445;-75
2022/09/10 09:55:21;;;;;;;22.50;17.77;;;20.30;99.90;;;;;;5073577;28;20441;-74
2022/09/10 09:57:48;;;;;;;22.90;20.50;;;20.30;99.90;;;;;;5074758;28;20471;-76
2022/09/10 10:00:38;;;;;;;21.43;18.77;;;20.30;99.90;;;;;;5074450;28;20524;-76
2022/09/10 10:03:15;;;;;;;20.00;17.07;;;20.20;99.90;;;;;;5048018;28;20953;-76
2022/09/10 10:05:42;;;;;;;23.13;16.10;;;20.40;99.90;;;;;;5067034;28;20481;-76
2022/09/10 10:08:27;;;;;;;21.83;19.40;;;20.50;99.90;;;;;;5069924;28;20470;-76
2022/09/10 10:10:54;;;;;;;21.43;18.87;;;20.70;99.90;;;;;;5071138;28;20448;-75
2022/09/10 10:13:22;;;;;;;19.23;17.33;;;20.90;99.90;;;;;;5071792;28;20893;-75
2022/09/10 10:15:49;;;;;;;22.07;18.73;;;21.00;99.90;;;;;;5067699;28;20510;-72
2022/09/10 10:18:31;;;;;;;18.67;16.20;;;21.00;99.90;;;;;;5079944;28;20498;-76
2022/09/10 10:21:22;;;;;;;25.70;16.80;;;21.20;99.90;;;;;;5073222;28;20444;-74
2022/09/10 10:23:49;;;;;;;18.93;15.53;;;21.50;99.90;;;;;;5068333;28;20515;-73
2022/09/10 10:26:23;;;;;;;17.83;16.13;;;21.80;99.90;;;;;;5074886;28;20995;-75
2022/09/10 10:28:52;;;;;;;15.97;14.43;;;22.00;99.90;;;;;;5077707;28;20836;-75
2022/09/10 10:31:19;;;;;;;17.40;15.57;;;22.30;99.90;;;;;;5078655;28;20452;-74
2022/09/10 10:33:57;;;;;;;18.63;14.23;;;22.50;99.90;;;;;;5092319;28;20459;-73
2022/09/10 10:36:35;;;;;;;16.63;14.13;;;22.60;99.90;;;;;;5074749;28;20900;-73
2022/09/10 10:39:09;;;;;;;19.80;16.03;;;22.60;99.90;;;;;;5068544;28;20536;-77
2022/09/10 10:41:49;;;;;;;16.80;14.97;;;22.50;99.90;;;;;;5073218;28;20479;-73
2022/09/10 10:44:40;;;;;;;20.70;15.67;;;22.40;99.90;;;;;;5074624;28;20521;-75
2022/09/10 10:47:27;;;;;;;14.70;13.30;;;22.50;99.90;;;;;;5065746;28;20553;-74
2022/09/10 10:50:07;;;;;;;16.93;15.20;;;22.60;99.90;;;;;;5071742;28;20536;-74
2022/09/10 10:52:44;;;;;;;13.73;12.27;;;22.80;99.90;;;;;;5072016;28;20523;-73
2022/09/10 10:55:22;;;;;;;15.67;14.03;;;22.90;99.90;;;;;;5066294;28;20466;-74
2022/09/10 10:58:15;;;;;;;12.20;10.43;;;23.00;99.90;;;;;;5073632;28;20464;-76
2022/09/10 11:00:47;;;;;;;14.73;11.00;;;23.30;99.90;;;;;;5070107;28;20449;-75
2022/09/10 11:03:22;;;;;;;13.87;12.40;;;23.40;99.90;;;;;;5074192;28;20525;-74
2022/09/10 11:05:55;;;;;;;11.47;10.37;;;23.70;99.90;;;;;;5066806;28;20519;-74
2022/09/10 11:08:30;;;;;;;15.53;13.97;;;24.00;99.90;;;;;;5073901;28;20479;-74
2022/09/10 11:11:03;;;;;;;13.20;11.90;;;24.00;99.90;;;;;;5062444;28;20439;-75
2022/09/10 11:13:36;;;;;;;11.60;10.40;;;24.00;99.90;;;;;;5084356;28;20526;-73
2022/09/10 11:16:08;;;;;;;11.97;10.63;;;24.20;99.90;;;;;;5075680;28;20523;-73
2022/09/10 11:18:43;;;;;;;12.77;11.37;;;24.40;99.90;;;;;;5064591;28;20438;-73
2022/09/10 11:21:20;;;;;;;8.83;7.77;;;24.60;99.90;;;;;;5065052;28;20470;-74
2022/09/10 11:23:53;;;;;;;11.37;9.83;;;24.30;98.40;;;;;;5070593;28;20535;-73
2022/09/10 11:26:25;;;;;;;10.07;9.07;;;24.10;98.90;;;;;;5062750;28;20480;-73
2022/09/10 11:29:03;;;;;;;8.60;7.80;;;24.10;98.90;;;;;;5072082;28;20516;-74
2022/09/10 11:31:35;;;;;;;9.80;8.63;;;24.00;97.90;;;;;;5072800;28;20444;-73
2022/09/10 11:34:05;;;;;;;8.73;7.90;;;24.10;97.90;;;;;;5073630;28;20429;-74
2022/09/10 11:36:40;;;;;;;12.30;9.03;;;24.30;98.20;;;;;;5067642;28;20512;-74
2022/09/10 11:39:16;;;;;;;12.40;11.20;;;24.60;98.00;;;;;;5072925;28;20540;-74
2022/09/10 11:41:46;;;;;;;9.80;8.80;;;24.50;97.70;;;;;;5061055;28;20495;-74
2022/09/10 11:44:28;;;;;;;15.00;9.30;;;24.60;98.50;;;;;;5059759;28;20860;-74
2022/09/10 11:47:03;;;;;;;11.00;8.43;;;24.50;97.80;;;;;;5062837;28;20968;-74
2022/09/10 11:49:41;;;;;;;9.27;8.33;;;24.20;97.70;;;;;;5062680;28;20943;-75
2022/09/10 11:52:10;;;;;;;13.27;10.20;;;24.40;98.70;;;;;;5063678;28;20481;-73
2022/09/10 11:54:39;;;;;;;9.57;8.67;;;24.60;97.30;;;;;;5065308;28;20462;-74
2022/09/10 11:57:11;;;;;;;8.70;7.90;;;24.40;97.90;;;;;;5065471;28;20469;-74
2022/09/10 12:00:02;;;;;;;9.90;8.47;;;24.30;98.30;;;;;;5069472;28;20445;-74
2022/09/10 12:03:15;;;;;;;11.70;9.97;;;24.30;98.40;;;;;;5070337;28;21174;-74
2022/09/10 12:05:59;;;;;;;11.03;9.83;;;24.20;98.10;;;;;;5063186;28;21018;-74
2022/09/10 12:08:47;;;;;;;10.20;9.20;;;23.60;99.10;;;;;;5072938;28;20457;-73
2022/09/10 12:11:24;;;;;;;11.27;8.63;;;23.70;99.90;;;;;;5067374;28;20444;-73
2022/09/10 12:13:51;;;;;;;11.70;10.50;;;23.80;99.90;;;;;;5064904;28;20437;-73
2022/09/10 12:16:28;;;;;;;8.80;8.00;;;23.90;99.90;;;;;;5068637;28;20531;-73
2022/09/10 12:18:56;;;;;;;9.60;8.70;;;23.90;99.90;;;;;;5066104;28;20452;-72
2022/09/10 12:21:32;;;;;;;8.70;7.90;;;24.00;99.90;;;;;;5069048;28;20537;-73
2022/09/10 12:24:05;;;;;;;11.03;8.90;;;23.90;99.90;;;;;;5068045;28;20547;-74
2022/09/10 12:26:42;;;;;;;9.80;8.17;;;23.80;99.90;;;;;;5070412;28;20485;-73
2022/09/10 12:29:26;;;;;;;8.20;7.40;;;23.80;99.90;;;;;;5068140;28;20547;-73
2022/09/10 12:32:38;;;;;;;11.60;7.70;;;23.90;99.30;;;;;;5074103;28;20441;-73
2022/09/10 12:35:46;;;;;;;7.67;6.87;;;23.80;98.80;;;;;;5077454;28;20501;-72
2022/09/10 12:38:51;;;;;;;7.37;6.17;;;23.60;98.70;;;;;;5069824;28;20809;-75
2022/09/10 12:42:00;;;;;;;8.63;6.17;;;23.60;99.20;;;;;;5069792;28;20503;-75
2022/09/10 12:44:52;;;;;;;7.33;6.47;;;23.70;99.30;;;;;;5067598;28;20507;-74
2022/09/10 12:47:33;;;;;;;8.73;7.10;;;23.90;98.40;;;;;;5069415;28;20461;-73
2022/09/10 12:50:03;;;;;;;7.20;6.50;;;23.90;97.20;;;;;;5065974;28;20429;-75
2022/09/10 12:52:43;;;;;;;8.30;6.77;;;24.10;97.50;;;;;;5068317;28;20517;-75
2022/09/10 12:55:21;;;;;;;8.90;6.57;;;24.20;96.90;;;;;;5070272;28;20434;-73
2022/09/10 12:58:00;;;;;;;6.30;5.63;;;24.00;97.50;;;;;;5075508;28;20507;-74